createdAt,value
2022-10-23T00:01:51.227Z,9.00
2022-10-23T00:04:23.217Z,8.20
2022-10-23T00:06:51.658Z,8.90
2022-10-23T00:09:24.078Z,8.30
2022-10-23T00:11:53.105Z,8.50
2022-10-23T00:14:25.229Z,8.70
2022-10-23T00:16:53.184Z,8.30
2022-10-23T00:19:21.074Z,8.20
2022-10-23T00:21:49.155Z,8.20
2022-10-23T00:24:17.160Z,8.50
2022-10-23T00:26:45.015Z,8.00
2022-10-23T00:29:12.925Z,7.00
2022-10-23T00:31:40.780Z,8.50
2022-10-23T00:34:09.308Z,8.50
2022-10-23T00:36:37.539Z,7.60
2022-10-23T00:39:06.009Z,8.60
2022-10-23T00:41:34.059Z,8.20
2022-10-23T00:44:30.628Z,6.70
2022-10-23T00:46:59.949Z,8.60
2022-10-23T00:49:28.438Z,7.60
2022-10-23T00:52:02.201Z,8.70
2022-10-23T00:54:37.325Z,9.00
2022-10-23T00:57:11.544Z,8.20
2022-10-23T00:59:40.867Z,8.50
2022-10-23T01:02:09.419Z,8.70
2022-10-23T01:04:38.395Z,8.50
2022-10-23T01:07:17.492Z,8.60
2022-10-23T01:09:48.696Z,8.10
2022-10-23T01:12:45.300Z,7.90
2022-10-23T01:15:31.026Z,7.80
2022-10-23T01:18:30.076Z,8.60
2022-10-23T01:21:08.627Z,7.80
2022-10-23T01:23:57.832Z,8.10
2022-10-23T01:27:01.090Z,8.50
2022-10-23T01:29:51.787Z,7.20
2022-10-23T01:32:35.159Z,7.80
2022-10-23T01:35:21.427Z,7.20
2022-10-23T01:38:12.827Z,7.40
2022-10-23T01:41:05.862Z,6.80
2022-10-23T01:44:07.270Z,7.50
2022-10-23T01:46:37.608Z,7.20
2022-10-23T01:49:12.904Z,6.80
2022-10-23T01:51:49.809Z,6.50
2022-10-23T01:54:23.674Z,7.10
2022-10-23T01:56:53.080Z,6.50
2022-10-23T01:59:35.265Z,6.50
2022-10-23T02:02:05.108Z,6.80
2022-10-23T02:04:55.632Z,6.70
2022-10-23T02:07:24.308Z,6.50
2022-10-23T02:09:52.713Z,6.80
2022-10-23T02:12:35.959Z,6.70
2022-10-23T02:15:19.408Z,7.50
2022-10-23T02:18:19.099Z,7.60
2022-10-23T02:20:59.049Z,6.30
2022-10-23T02:23:38.920Z,6.00
2022-10-23T02:26:41.061Z,6.30
2022-10-23T02:29:21.275Z,6.20
2022-10-23T02:31:49.605Z,7.30
2022-10-23T02:34:19.717Z,5.90
2022-10-23T02:36:47.987Z,6.30
2022-10-23T02:39:15.887Z,6.10
2022-10-23T02:41:57.795Z,5.80
2022-10-23T02:45:07.099Z,6.80
2022-10-23T02:47:46.060Z,6.40
2022-10-23T02:50:38.907Z,6.20
2022-10-23T02:53:12.289Z,6.80
2022-10-23T02:56:04.448Z,5.30
2022-10-23T02:58:56.728Z,6.10
2022-10-23T03:01:58.218Z,6.90
2022-10-23T03:04:29.574Z,5.60
2022-10-23T03:06:57.979Z,5.30
2022-10-23T03:09:27.317Z,5.60
2022-10-23T03:11:55.197Z,6.30
2022-10-23T03:14:23.151Z,5.60
2022-10-23T03:16:51.241Z,6.10
2022-10-23T03:19:19.077Z,5.20
2022-10-23T03:21:46.972Z,5.20
2022-10-23T03:24:15.042Z,5.50
2022-10-23T03:26:44.255Z,5.50
2022-10-23T03:29:12.256Z,5.60
2022-10-23T03:31:45.531Z,5.70
2022-10-23T03:34:15.094Z,5.50
2022-10-23T03:36:43.383Z,5.80
2022-10-23T03:39:11.465Z,5.10
2022-10-23T03:41:39.341Z,6.30
2022-10-23T03:44:07.216Z,5.10
2022-10-23T03:46:35.051Z,5.20
2022-10-23T03:49:03.064Z,5.60
2022-10-23T03:51:30.984Z,5.30
2022-10-23T03:53:58.807Z,5.50
2022-10-23T03:56:26.892Z,5.70
2022-10-23T03:58:54.901Z,4.60
2022-10-23T04:01:25.630Z,5.40
2022-10-23T04:03:53.803Z,5.50
2022-10-23T04:06:21.747Z,5.20
2022-10-23T04:08:50.315Z,5.40
2022-10-23T04:11:18.704Z,4.90
2022-10-23T04:13:47.542Z,5.40
2022-10-23T04:16:16.060Z,5.00
2022-10-23T04:18:45.547Z,5.20
2022-10-23T04:21:13.614Z,5.30
2022-10-23T04:23:42.758Z,5.60
2022-10-23T04:26:19.174Z,5.90
2022-10-23T04:28:47.149Z,5.80
2022-10-23T04:31:15.020Z,5.70
2022-10-23T04:33:43.972Z,5.20
2022-10-23T04:36:22.510Z,5.60
2022-10-23T04:38:50.327Z,5.30
2022-10-23T04:41:18.162Z,5.90
2022-10-23T04:43:47.051Z,5.30
2022-10-23T04:46:15.939Z,5.60
2022-10-23T04:48:47.517Z,5.50
2022-10-23T04:51:50.729Z,5.40
2022-10-23T04:54:44.511Z,5.70
2022-10-23T04:57:32.645Z,6.00
2022-10-23T05:00:10.289Z,5.30
2022-10-23T05:02:46.035Z,4.80
2022-10-23T05:05:15.945Z,6.10
2022-10-23T05:08:23.688Z,4.40
2022-10-23T05:11:10.327Z,4.80
2022-10-23T05:13:43.533Z,6.10
2022-10-23T05:16:30.458Z,4.70
2022-10-23T05:19:00.011Z,4.80
2022-10-23T05:21:34.705Z,4.60
2022-10-23T05:24:05.556Z,5.40
2022-10-23T05:26:33.689Z,4.90
2022-10-23T05:29:06.963Z,4.90
2022-10-23T05:31:35.996Z,4.70
2022-10-23T05:34:14.883Z,4.80
2022-10-23T05:36:45.917Z,4.80
2022-10-23T05:39:15.686Z,4.30
2022-10-23T05:41:43.645Z,4.80
2022-10-23T05:44:12.187Z,5.30
2022-10-23T05:46:58.701Z,4.80
2022-10-23T05:49:56.394Z,5.20
2022-10-23T05:52:49.344Z,5.10
2022-10-23T05:55:30.579Z,6.10
2022-10-23T05:58:16.987Z,5.80
2022-10-23T06:01:11.618Z,5.30
2022-10-23T06:03:53.623Z,5.20
2022-10-23T06:06:23.723Z,5.30
2022-10-23T06:08:51.788Z,4.90
2022-10-23T06:11:21.128Z,5.20
2022-10-23T06:16:30.320Z,5.10
2022-10-23T06:18:58.949Z,5.20
2022-10-23T06:21:26.925Z,5.00
2022-10-23T06:23:55.629Z,4.30
2022-10-23T06:26:26.657Z,5.20
2022-10-23T06:29:20.924Z,4.40
2022-10-23T06:31:49.123Z,5.10
2022-10-23T06:34:17.037Z,5.10
2022-10-23T06:36:46.408Z,4.70
2022-10-23T06:39:33.044Z,4.70
2022-10-23T06:42:21.271Z,4.70
2022-10-23T06:44:54.940Z,4.80
2022-10-23T06:47:43.204Z,5.40
2022-10-23T06:50:33.132Z,4.80
2022-10-23T06:53:06.295Z,4.50
2022-10-23T06:55:35.549Z,5.10
2022-10-23T06:58:04.621Z,5.10
2022-10-23T07:00:32.589Z,5.50
2022-10-23T07:03:00.943Z,5.40
2022-10-23T07:05:28.751Z,4.80
2022-10-23T07:07:56.698Z,6.20
2022-10-23T07:10:26.806Z,5.60
2022-10-23T07:13:01.078Z,5.50
2022-10-23T07:15:49.434Z,5.60
2022-10-23T07:18:20.565Z,5.60
2022-10-23T07:21:20.655Z,5.50
2022-10-23T07:23:49.099Z,6.40
2022-10-23T07:26:17.450Z,5.50
2022-10-23T07:28:48.136Z,6.00
2022-10-23T07:31:18.928Z,6.20
2022-10-23T07:34:10.856Z,5.70
2022-10-23T07:36:38.792Z,5.80
2022-10-23T07:39:07.072Z,5.50
2022-10-23T07:41:37.380Z,6.20
2022-10-23T07:44:05.369Z,5.40
2022-10-23T07:46:33.367Z,6.10
2022-10-23T07:49:01.517Z,5.40
2022-10-23T07:51:29.495Z,5.00
2022-10-23T07:54:00.218Z,5.00
2022-10-23T07:56:46.993Z,5.40
2022-10-23T07:59:21.204Z,5.40
2022-10-23T08:01:56.740Z,4.80
2022-10-23T08:04:35.960Z,4.80
2022-10-23T08:07:11.258Z,5.00
2022-10-23T08:09:42.398Z,5.10
2022-10-23T08:12:10.496Z,5.20
2022-10-23T08:14:38.841Z,4.30
2022-10-23T08:17:09.823Z,4.40
2022-10-23T08:20:04.868Z,4.60
2022-10-23T08:22:39.023Z,5.10
2022-10-23T08:25:07.184Z,4.70
2022-10-23T08:27:35.282Z,5.10
2022-10-23T08:30:03.973Z,5.20
2022-10-23T08:32:32.008Z,5.40
2022-10-23T08:35:01.171Z,5.40
2022-10-23T08:37:31.603Z,4.80
2022-10-23T08:39:59.497Z,4.40
2022-10-23T08:43:13.209Z,4.80
2022-10-23T08:45:56.438Z,5.20
2022-10-23T08:49:14.463Z,5.00
2022-10-23T08:51:55.693Z,4.50
2022-10-23T08:54:57.737Z,4.60
2022-10-23T08:57:37.769Z,4.60
2022-10-23T09:00:16.074Z,4.90
2022-10-23T09:02:49.651Z,4.20
2022-10-23T09:05:30.199Z,4.50
2022-10-23T09:08:21.681Z,4.90
2022-10-23T09:13:58.607Z,4.20
2022-10-23T09:16:43.861Z,4.40
2022-10-23T09:19:27.310Z,5.10
2022-10-23T09:21:57.093Z,4.70
2022-10-23T09:24:26.981Z,4.00
2022-10-23T09:26:55.039Z,3.90
2022-10-23T09:29:28.820Z,4.10
2022-10-23T09:32:05.107Z,4.00
2022-10-23T09:34:35.126Z,3.30
2022-10-23T09:37:22.816Z,3.20
2022-10-23T09:40:12.248Z,2.70
2022-10-23T09:42:52.986Z,3.60
2022-10-23T09:45:28.846Z,3.90
2022-10-23T09:48:19.303Z,3.10
2022-10-23T09:50:57.788Z,2.60
2022-10-23T09:53:57.608Z,2.50
2022-10-23T09:56:41.741Z,2.80
2022-10-23T09:59:12.715Z,2.90
2022-10-23T10:01:50.938Z,3.40
2022-10-23T10:04:41.718Z,2.80
2022-10-23T10:07:22.797Z,2.90
2022-10-23T10:09:53.249Z,2.60
2022-10-23T10:12:43.980Z,2.90
2022-10-23T10:15:52.974Z,2.90
2022-10-23T10:18:56.358Z,2.70
2022-10-23T10:21:39.060Z,3.40
2022-10-23T10:24:22.917Z,3.60
2022-10-23T10:27:00.937Z,3.40
2022-10-23T10:30:13.526Z,2.90
2022-10-23T10:33:00.300Z,3.10
2022-10-23T10:35:42.725Z,3.20
2022-10-23T10:38:42.388Z,3.20
2022-10-23T10:41:49.612Z,3.10
2022-10-23T10:44:28.192Z,3.20
2022-10-23T10:47:14.930Z,3.00
2022-10-23T10:50:07.633Z,2.90
2022-10-23T10:53:41.585Z,2.80
2022-10-23T10:56:17.663Z,2.60
2022-10-23T10:58:56.656Z,2.60
2022-10-23T11:01:40.935Z,2.80
2022-10-23T11:04:29.042Z,2.60
2022-10-23T11:06:59.824Z,3.70
2022-10-23T11:09:30.507Z,2.70
2022-10-23T11:11:59.685Z,3.00
2022-10-23T11:14:35.836Z,2.70
2022-10-23T11:17:25.677Z,2.80
2022-10-23T11:20:45.419Z,3.20
2022-10-23T11:23:53.985Z,3.00
2022-10-23T11:27:09.710Z,3.10
2022-10-23T11:29:59.006Z,2.60
2022-10-23T11:32:39.016Z,2.80
2022-10-23T11:35:36.199Z,2.80
2022-10-23T11:38:31.234Z,2.90
2022-10-23T11:41:20.997Z,2.60
2022-10-23T11:44:01.726Z,2.40
2022-10-23T11:46:36.577Z,2.20
2022-10-23T11:49:21.298Z,2.00
2022-10-23T11:52:05.534Z,2.30
2022-10-23T11:54:33.426Z,1.90
2022-10-23T11:57:10.396Z,1.80
2022-10-23T11:59:47.895Z,1.80
2022-10-23T12:02:38.554Z,1.70
2022-10-23T12:05:22.825Z,2.40
2022-10-23T12:07:57.667Z,2.10
2022-10-23T12:10:46.111Z,2.90
2022-10-23T12:13:38.447Z,2.90
2022-10-23T12:16:07.808Z,2.00
2022-10-23T12:18:53.836Z,1.70
2022-10-23T12:21:28.321Z,1.40
2022-10-23T12:24:08.403Z,1.50
2022-10-23T12:27:12.676Z,1.60
2022-10-23T12:30:09.600Z,1.50
2022-10-23T12:32:54.240Z,2.00
2022-10-23T12:35:53.660Z,1.70
2022-10-23T12:38:32.457Z,1.40
2022-10-23T12:41:27.851Z,1.50
2022-10-23T12:44:03.580Z,1.60
2022-10-23T12:46:39.449Z,1.60
2022-10-23T12:49:25.070Z,1.80
2022-10-23T12:52:17.193Z,1.80
2022-10-23T12:54:45.959Z,1.80
2022-10-23T12:57:23.105Z,2.00
2022-10-23T12:59:58.764Z,2.00
2022-10-23T13:02:31.379Z,1.90
2022-10-23T13:05:05.261Z,1.80
2022-10-23T13:07:42.584Z,1.90
2022-10-23T13:10:16.525Z,1.70
2022-10-23T13:13:07.754Z,1.80
2022-10-23T13:15:45.012Z,1.90
2022-10-23T13:18:15.898Z,1.90
2022-10-23T13:20:56.695Z,2.00
2022-10-23T13:23:34.904Z,1.90
2022-10-23T13:26:24.745Z,1.60
2022-10-23T13:28:52.943Z,2.00
2022-10-23T13:31:20.718Z,2.20
2022-10-23T13:34:00.344Z,2.20
2022-10-23T13:36:36.752Z,2.10
2022-10-23T13:39:11.742Z,2.00
2022-10-23T13:41:44.199Z,2.30
2022-10-23T13:44:18.910Z,2.20
2022-10-23T13:46:48.496Z,2.30
2022-10-23T13:49:16.759Z,2.30
2022-10-23T13:51:49.984Z,2.10
2022-10-23T13:54:22.950Z,2.20
2022-10-23T13:56:52.713Z,2.50
2022-10-23T13:59:21.619Z,2.30
2022-10-23T14:01:51.341Z,2.20
2022-10-23T14:04:20.207Z,2.60
2022-10-23T14:06:48.355Z,2.40
2022-10-23T14:09:19.045Z,2.60
2022-10-23T14:11:47.839Z,2.40
2022-10-23T14:14:15.816Z,2.30
2022-10-23T14:16:43.867Z,2.20
2022-10-23T14:19:11.816Z,2.20
2022-10-23T14:21:39.689Z,1.90
2022-10-23T14:24:09.107Z,1.90
2022-10-23T14:26:37.874Z,2.00
2022-10-23T14:29:09.763Z,2.30
2022-10-23T14:31:38.480Z,2.20
2022-10-23T14:34:06.424Z,2.10
2022-10-23T14:36:43.608Z,1.80
2022-10-23T14:39:19.158Z,2.30
2022-10-23T14:41:47.085Z,2.20
2022-10-23T14:44:15.289Z,1.90
2022-10-23T14:46:43.190Z,2.40
2022-10-23T14:49:11.024Z,2.10
2022-10-23T14:51:38.941Z,2.70
2022-10-23T14:54:08.400Z,1.90
2022-10-23T14:56:40.620Z,1.70
2022-10-23T14:59:10.187Z,3.40
2022-10-23T15:01:45.100Z,2.30
2022-10-23T15:04:15.910Z,3.00
2022-10-23T15:06:45.141Z,2.00
2022-10-23T15:09:14.656Z,2.30
2022-10-23T15:11:42.839Z,1.80
2022-10-23T15:14:11.666Z,2.00
2022-10-23T15:16:42.795Z,3.50
2022-10-23T15:19:18.171Z,3.40
2022-10-23T15:21:48.319Z,4.00
2022-10-23T15:24:17.573Z,4.30
2022-10-23T15:26:45.702Z,2.40
2022-10-23T15:29:15.273Z,2.80
2022-10-23T15:31:55.785Z,2.90
2022-10-23T15:34:28.697Z,2.20
2022-10-23T15:36:57.746Z,2.30
2022-10-23T15:39:33.717Z,2.50
2022-10-23T15:42:05.684Z,2.20
2022-10-23T15:44:34.376Z,2.90
2022-10-23T15:47:02.463Z,2.40
2022-10-23T15:49:30.508Z,2.50
2022-10-23T15:51:58.879Z,2.40
2022-10-23T15:54:30.540Z,2.50
2022-10-23T15:57:02.596Z,3.00
2022-10-23T15:59:32.283Z,3.10
2022-10-23T16:02:00.951Z,4.40
2022-10-23T16:04:29.178Z,3.40
2022-10-23T16:06:57.090Z,4.10
2022-10-23T16:09:24.951Z,3.40
2022-10-23T16:11:52.804Z,3.40
2022-10-23T16:14:20.642Z,3.10
2022-10-23T16:16:48.847Z,2.90
2022-10-23T16:19:17.074Z,2.50
2022-10-23T16:21:45.322Z,1.30
2022-10-23T16:24:13.272Z,1.10
2022-10-23T16:26:41.192Z,1.70
2022-10-23T16:29:11.351Z,1.20
2022-10-23T16:31:39.302Z,1.50
2022-10-23T16:34:07.812Z,1.20
2022-10-23T16:36:39.152Z,1.30
2022-10-23T16:39:16.260Z,1.20
2022-10-23T16:42:05.647Z,1.40
2022-10-23T16:45:07.056Z,1.60
2022-10-23T16:47:35.326Z,1.50
2022-10-23T16:50:03.900Z,1.60
2022-10-23T16:52:31.911Z,2.90
2022-10-23T16:55:00.383Z,3.10
2022-10-23T16:57:28.346Z,3.80
2022-10-23T16:59:56.229Z,4.30
2022-10-23T17:02:24.250Z,3.30
2022-10-23T17:04:52.359Z,3.10
2022-10-23T17:09:53.136Z,2.70
2022-10-23T17:12:21.039Z,2.10
2022-10-23T17:14:49.010Z,2.60
2022-10-23T17:17:16.978Z,2.10
2022-10-23T17:19:46.245Z,2.70
2022-10-23T17:22:15.614Z,2.70
2022-10-23T17:24:46.432Z,3.00
2022-10-23T17:27:17.312Z,7.50
2022-10-23T17:29:45.491Z,10.90
2022-10-23T17:32:13.516Z,8.90
2022-10-23T17:34:41.486Z,4.30
2022-10-23T17:37:10.305Z,2.80
2022-10-23T17:39:38.091Z,2.20
2022-10-23T17:42:06.222Z,2.80
2022-10-23T17:44:34.093Z,2.50
2022-10-23T17:47:02.060Z,3.10
2022-10-23T17:49:30.180Z,2.80
2022-10-23T17:51:58.391Z,2.80
2022-10-23T17:54:27.702Z,3.30
2022-10-23T17:56:56.587Z,2.90
2022-10-23T17:59:24.536Z,3.60
2022-10-23T18:01:52.600Z,3.30
2022-10-23T18:04:21.505Z,3.80
2022-10-23T18:06:53.296Z,3.80
2022-10-23T18:09:24.281Z,3.60
2022-10-23T18:11:52.849Z,3.60
2022-10-23T18:14:21.986Z,3.60
2022-10-23T18:16:51.245Z,3.60
2022-10-23T18:19:19.812Z,4.30
2022-10-23T18:21:48.592Z,4.80
2022-10-23T18:24:17.739Z,7.50
2022-10-23T18:26:48.151Z,5.60
2022-10-23T18:29:17.595Z,5.90
2022-10-23T18:31:48.381Z,5.80
2022-10-23T18:34:22.978Z,11.10
2022-10-23T18:36:53.961Z,13.90
2022-10-23T18:39:24.743Z,12.00
2022-10-23T18:41:57.026Z,9.00
2022-10-23T18:44:29.184Z,7.00
2022-10-23T18:46:59.528Z,5.20
2022-10-23T18:49:28.807Z,5.70
2022-10-23T18:51:58.330Z,5.20
2022-10-23T18:54:26.607Z,4.00
2022-10-23T18:56:54.690Z,4.00
2022-10-23T18:59:23.033Z,4.70
2022-10-23T19:01:51.237Z,4.70
2022-10-23T19:04:19.311Z,4.80
2022-10-23T19:06:49.436Z,4.20
2022-10-23T19:09:18.317Z,4.50
2022-10-23T19:11:46.425Z,4.70
2022-10-23T19:14:14.769Z,6.60
2022-10-23T19:17:12.472Z,6.00
2022-10-23T19:19:50.032Z,6.10
2022-10-23T19:22:18.802Z,6.00
2022-10-23T19:24:58.462Z,7.00
2022-10-23T19:27:28.013Z,7.60
2022-10-23T19:29:57.006Z,7.20
2022-10-23T19:32:24.933Z,6.70
2022-10-23T19:34:52.874Z,6.00
2022-10-23T19:37:20.727Z,5.70
2022-10-23T19:39:48.595Z,5.80
2022-10-23T19:42:16.407Z,5.70
2022-10-23T19:44:44.704Z,5.50
2022-10-23T19:47:12.603Z,5.90
2022-10-23T19:49:40.791Z,5.10
2022-10-23T19:52:08.646Z,6.00
2022-10-23T19:54:37.749Z,9.00
2022-10-23T19:57:05.638Z,8.70
2022-10-23T19:59:33.445Z,7.20
2022-10-23T20:02:01.991Z,7.10
2022-10-23T20:04:30.346Z,6.30
2022-10-23T20:06:58.489Z,6.40
2022-10-23T20:09:26.780Z,6.20
2022-10-23T20:11:55.700Z,5.40
2022-10-23T20:14:23.602Z,5.50
2022-10-23T20:16:55.750Z,5.40
2022-10-23T20:19:24.293Z,5.40
2022-10-23T20:21:52.345Z,7.30
2022-10-23T20:24:21.595Z,7.20
2022-10-23T20:26:53.894Z,6.20
2022-10-23T20:29:23.339Z,7.40
2022-10-23T20:31:51.955Z,7.50
2022-10-23T20:34:20.815Z,7.10
2022-10-23T20:36:50.124Z,8.40
2022-10-23T20:39:24.548Z,9.70
2022-10-23T20:41:55.353Z,12.10
2022-10-23T20:44:24.719Z,15.50
2022-10-23T20:46:53.118Z,15.10
2022-10-23T20:49:22.049Z,13.20
2022-10-23T20:51:55.050Z,12.40
2022-10-23T20:54:26.117Z,12.30
2022-10-23T20:56:56.942Z,10.00
2022-10-23T20:59:25.405Z,10.30
2022-10-23T21:01:55.438Z,9.20
2022-10-23T21:04:27.556Z,7.50
2022-10-23T21:07:09.301Z,7.50
2022-10-23T21:09:40.065Z,9.20
2022-10-23T21:12:09.132Z,10.10
2022-10-23T21:14:37.074Z,10.00
2022-10-23T21:17:05.683Z,9.70
2022-10-23T21:19:33.658Z,7.50
2022-10-23T21:22:01.902Z,7.30
2022-10-23T21:24:29.834Z,6.80
2022-10-23T21:26:57.889Z,7.00
2022-10-23T21:29:25.826Z,7.60
2022-10-23T21:31:57.354Z,6.20
2022-10-23T21:34:27.040Z,7.30
2022-10-23T21:39:45.842Z,8.20
2022-10-23T21:42:15.330Z,7.70
2022-10-23T21:44:43.582Z,8.20
2022-10-23T21:47:11.657Z,8.30
2022-10-23T21:49:39.576Z,9.00
2022-10-23T21:52:07.792Z,8.90
2022-10-23T21:54:35.746Z,9.60
2022-10-23T21:57:04.066Z,9.20
2022-10-23T21:59:34.809Z,9.20
2022-10-23T22:02:04.736Z,8.20
2022-10-23T22:04:33.704Z,7.80
2022-10-23T22:07:05.607Z,7.10
2022-10-23T22:09:34.651Z,6.70
2022-10-23T22:12:02.452Z,4.60
2022-10-23T22:14:30.803Z,4.40
2022-10-23T22:16:58.878Z,4.90
2022-10-23T22:19:27.075Z,4.10
2022-10-23T22:21:55.212Z,4.10
2022-10-23T22:24:23.891Z,3.40
2022-10-23T22:26:55.824Z,3.20
2022-10-23T22:29:27.609Z,2.90
2022-10-23T22:31:56.976Z,2.80
2022-10-23T22:37:17.138Z,3.40
2022-10-23T22:39:45.132Z,2.20
2022-10-23T22:42:13.101Z,2.00
2022-10-23T22:44:41.063Z,1.90
2022-10-23T22:47:09.046Z,2.50
2022-10-23T22:49:37.663Z,1.40
2022-10-23T22:52:05.549Z,1.70
2022-10-23T22:54:33.749Z,1.50
2022-10-23T22:57:01.767Z,1.20
2022-10-23T22:59:29.579Z,1.20
2022-10-23T23:01:57.396Z,2.10
2022-10-23T23:04:37.150Z,1.30
2022-10-23T23:07:09.636Z,1.80
2022-10-23T23:12:13.825Z,2.10
2022-10-23T23:14:43.035Z,1.80
2022-10-23T23:17:11.843Z,1.90
2022-10-23T23:19:40.052Z,2.00
2022-10-23T23:22:08.093Z,2.10
2022-10-23T23:24:36.285Z,1.70
2022-10-23T23:27:04.329Z,2.70
2022-10-23T23:29:32.422Z,1.90
2022-10-23T23:32:00.579Z,1.90
2022-10-23T23:34:29.251Z,1.90
2022-10-23T23:36:57.306Z,2.00
2022-10-23T23:39:26.170Z,2.00
2022-10-23T23:41:54.168Z,1.90
2022-10-23T23:44:22.023Z,2.50
2022-10-23T23:46:49.900Z,1.90
2022-10-23T23:49:17.827Z,2.10
2022-10-23T23:51:45.727Z,2.00
2022-10-23T23:54:13.678Z,2.10
2022-10-23T23:56:41.675Z,2.80
2022-10-23T23:59:09.482Z,2.90
